Ridgeway, Connecticut
Current Conditions -  °F | °C
As of 10:56 PM on Saturday 20 Dec 2014 (Local Time) from KHPN Reporting Station
Overcast Overcast  
Wind Chill: 30°   Ceiling: 2100
Heat Index: 30°   Visibility: 10mi
Dew Point: 22°   Wind: 3mph
Humidity: 72%   Direction: 340°NNW
Pressure: 30.26"   Gusts: NA
Location:  41.0876°N, 73.5444°W
Report Text: KHPN 210356Z 34003KT 10SM OVC021 M01/M06 A3026 RMK AO2 SLP255 T10111056
Loading
Personal Weather Stations






























Interactive Weather Map New forecast layout! Learn more

10-Day Weather Forecast

Advertisements
Track Severe Weather on mobile